createdAt,value
2017-03-29T00:06:12.323Z,1015.03
2017-03-29T00:16:12.267Z,1015.02
2017-03-29T00:26:12.230Z,1015.02
2017-03-29T00:36:12.291Z,1014.99
2017-03-29T00:46:12.251Z,1014.98
2017-03-29T00:56:12.317Z,1014.98
2017-03-29T01:06:12.288Z,1015.08
2017-03-29T01:16:12.280Z,1015.09
2017-03-29T01:26:12.308Z,1015.02
2017-03-29T01:36:12.260Z,1015.01
2017-03-29T01:46:12.222Z,1014.97
2017-03-29T01:56:12.297Z,1014.89
2017-03-29T02:06:12.239Z,1014.79
2017-03-29T02:16:12.326Z,1014.88
2017-03-29T02:26:12.280Z,1014.97
2017-03-29T02:36:12.233Z,1014.95
2017-03-29T02:46:12.297Z,1015
2017-03-29T02:56:12.252Z,1014.99
2017-03-29T03:06:12.217Z,1014.97
2017-03-29T03:16:12.275Z,1014.97
2017-03-29T03:26:12.232Z,1015.04
2017-03-29T03:36:12.198Z,1014.99
2017-03-29T03:46:12.271Z,1014.98
2017-03-29T03:56:12.229Z,1014.99
2017-03-29T04:06:12.287Z,1014.98
2017-03-29T04:16:12.256Z,1015.03
2017-03-29T04:26:12.207Z,1014.96
2017-03-29T04:36:12.273Z,1014.99
2017-03-29T04:46:12.229Z,1014.99
2017-03-29T04:56:12.304Z,1014.92
2017-03-29T05:06:12.258Z,1015.15
2017-03-29T05:16:12.226Z,1015.3
2017-03-29T05:26:12.282Z,1015.3
2017-03-29T05:36:12.238Z,1015.22
2017-03-29T05:46:12.201Z,1015.3
2017-03-29T05:56:12.262Z,1015.34
2017-03-29T06:06:12.218Z,1015.48
2017-03-29T06:16:12.282Z,1015.55
2017-03-29T06:26:12.266Z,1015.56
2017-03-29T06:36:12.171Z,1015.68
2017-03-29T06:46:12.160Z,1015.61
2017-03-29T06:56:12.159Z,1015.61
2017-03-29T07:06:12.160Z,1015.59
2017-03-29T07:16:12.162Z,1015.67
2017-03-29T07:26:12.163Z,1015.66
2017-03-29T07:36:12.162Z,1015.61
2017-03-29T07:46:12.165Z,1015.73
2017-03-29T07:56:12.152Z,1015.71
2017-03-29T08:06:12.165Z,1015.79
2017-03-29T08:16:12.157Z,1015.84
2017-03-29T08:26:12.160Z,1015.85
2017-03-29T08:36:12.170Z,1015.92
2017-03-29T08:46:12.170Z,1016.02
2017-03-29T08:56:12.162Z,1015.99
2017-03-29T09:06:12.164Z,1015.96
2017-03-29T09:16:12.168Z,1016.12
2017-03-29T09:26:12.168Z,1016.22
2017-03-29T09:36:12.172Z,1016.05
2017-03-29T09:46:12.170Z,1016.17
2017-03-29T09:56:12.170Z,1016.1
2017-03-29T10:06:12.176Z,1016.2
2017-03-29T10:16:12.170Z,1016.18
2017-03-29T10:26:12.231Z,1016.22
2017-03-29T10:36:12.260Z,1016.21
2017-03-29T10:46:12.260Z,1016.35
2017-03-29T10:56:12.288Z,1016.31
2017-03-29T11:06:12.243Z,1016.4
2017-03-29T11:16:12.202Z,1016.35
2017-03-29T11:26:12.275Z,1016.34
2017-03-29T11:36:12.238Z,1016.27
2017-03-29T11:46:12.204Z,1016.18
2017-03-29T11:56:12.251Z,1016.18
2017-03-29T12:06:12.258Z,1016.19
2017-03-29T12:16:12.283Z,1016.09
2017-03-29T12:26:12.235Z,1016.15
2017-03-29T12:36:12.195Z,1016.27
2017-03-29T12:46:12.266Z,1016.23
2017-03-29T12:56:12.229Z,1016.12
2017-03-29T13:06:12.228Z,1016.09
2017-03-29T13:16:12.296Z,1016.11
2017-03-29T13:26:12.277Z,1016.1
2017-03-29T13:36:12.218Z,1016.02
2017-03-29T13:46:12.281Z,1016.09
2017-03-29T13:56:12.241Z,1016.14
2017-03-29T14:06:12.199Z,1016.08
2017-03-29T14:16:12.276Z,1016.08
2017-03-29T14:26:12.231Z,1016.1
2017-03-29T14:36:12.286Z,1016.1
2017-03-29T14:46:12.247Z,1016.11
2017-03-29T14:56:12.209Z,1016.05
2017-03-29T15:06:12.273Z,1016.07
2017-03-29T15:16:12.233Z,1016.05
2017-03-29T15:26:12.188Z,1016.15
2017-03-29T15:36:12.183Z,1016.07
2017-03-29T15:46:12.185Z,1016.03
2017-03-29T15:56:12.189Z,1015.92
2017-03-29T16:06:12.189Z,1015.97
2017-03-29T16:16:12.190Z,1015.94
2017-03-29T16:26:12.191Z,1016.05
2017-03-29T16:36:12.183Z,1016.11
2017-03-29T16:46:12.287Z,1016.15
2017-03-29T16:56:12.198Z,1016.31
2017-03-29T17:06:12.193Z,1016.26
2017-03-29T17:16:12.183Z,1016.37
2017-03-29T17:26:12.234Z,1016.47
2017-03-29T17:36:12.335Z,1016.49
2017-03-29T17:46:12.262Z,1016.64
2017-03-29T17:56:12.203Z,1016.7
2017-03-29T18:06:12.286Z,1016.82
2017-03-29T18:16:12.196Z,1016.93
2017-03-29T18:26:12.216Z,1016.99
2017-03-29T18:36:12.269Z,1017.19
2017-03-29T18:46:12.250Z,1017.27
2017-03-29T18:56:12.298Z,1017.38
2017-03-29T19:06:12.269Z,1017.5
2017-03-29T19:16:12.212Z,1017.55
2017-03-29T19:26:12.277Z,1017.55
2017-03-29T19:56:12.268Z,1017.74
2017-03-29T20:06:12.242Z,1017.79
2017-03-29T20:16:12.277Z,1017.81
2017-03-29T20:26:12.260Z,1017.84
2017-03-29T20:36:12.215Z,1017.83
2017-03-29T20:46:12.280Z,1017.89
2017-03-29T20:56:12.304Z,1017.93
2017-03-29T21:06:12.272Z,1017.95
2017-03-29T21:16:12.211Z,1017.93
2017-03-29T21:26:12.273Z,1017.92
2017-03-29T21:36:12.231Z,1017.97
2017-03-29T21:46:12.309Z,1017.99
2017-03-29T21:56:12.254Z,1017.92
2017-03-29T22:06:12.216Z,1017.88
2017-03-29T22:16:12.280Z,1017.88
2017-03-29T22:26:12.245Z,1017.86
2017-03-29T22:36:12.170Z,1017.85
2017-03-29T22:46:12.280Z,1017.8
2017-03-29T22:56:12.257Z,1017.77
2017-03-29T23:06:12.187Z,1017.72
2017-03-29T23:16:12.247Z,1017.71
2017-03-29T23:26:12.205Z,1017.73
2017-03-29T23:36:12.282Z,1017.68
2017-03-29T23:46:12.237Z,1017.68
2017-03-29T23:56:12.200Z,1017.64
